Time;durP1;ratioP1;P1;durP2;ratioP2;P2;SDS_P1;SDS_P2;PMS_P1;PMS_P2;Temp;Humidity;BMP_temperature;BMP_pressure;BME280_temperature;BME280_humidity;BME280_pressure;Samples;Min_cycle;Max_cycle;Signal;HPM_P1;HPM_P2
2021/07/04 00:01:39;;;;;;;4.50;4.10;;;20.70;99.90;;;;;;5072370;28;20209;-63
2021/07/04 00:04:06;;;;;;;5.07;4.15;;;20.60;99.90;;;;;;5072436;28;20221;-63
2021/07/04 00:06:33;;;;;;;4.93;4.43;;;20.60;99.90;;;;;;5072464;28;20552;-63
2021/07/04 00:09:00;;;;;;;4.22;3.83;;;20.60;99.90;;;;;;5072463;28;20227;-63
2021/07/04 00:11:26;;;;;;;6.85;4.50;;;20.50;99.90;;;;;;5072446;28;20205;-63
2021/07/04 00:13:53;;;;;;;4.93;4.20;;;20.40;99.90;;;;;;5072106;28;20213;-63
2021/07/04 00:16:21;;;;;;;6.13;4.03;;;20.30;99.90;;;;;;5072508;28;20221;-63
2021/07/04 00:18:48;;;;;;;4.40;4.00;;;20.20;99.90;;;;;;5072651;28;20254;-63
2021/07/04 00:21:15;;;;;;;5.20;4.63;;;20.10;99.90;;;;;;5072373;28;20278;-63
2021/07/04 00:23:42;;;;;;;5.53;4.47;;;20.00;99.90;;;;;;5071901;28;20248;-63
2021/07/04 00:26:08;;;;;;;4.60;4.20;;;19.90;99.90;;;;;;5072013;28;20225;-63
2021/07/04 00:28:35;;;;;;;4.93;3.92;;;19.80;99.90;;;;;;5072044;28;20252;-62
2021/07/04 00:31:03;;;;;;;5.72;4.68;;;19.70;99.90;;;;;;5072517;28;20208;-63
2021/07/04 00:33:31;;;;;;;6.57;4.00;;;19.60;99.90;;;;;;5072388;28;20200;-62
2021/07/04 00:35:58;;;;;;;5.68;4.40;;;19.60;99.90;;;;;;5072169;28;20225;-62
2021/07/04 00:38:27;;;;;;;7.68;4.40;;;19.50;99.90;;;;;;5071911;28;20581;-63
2021/07/04 00:40:54;;;;;;;5.18;4.35;;;19.60;99.90;;;;;;5072066;28;20205;-63
2021/07/04 00:43:20;;;;;;;7.20;4.22;;;19.50;99.90;;;;;;5072068;28;20232;-62
2021/07/04 00:45:47;;;;;;;4.78;4.38;;;19.60;99.90;;;;;;5071657;28;20248;-62
2021/07/04 00:48:14;;;;;;;4.55;4.07;;;19.70;99.90;;;;;;5071627;28;20648;-63
2021/07/04 00:50:43;;;;;;;5.63;3.97;;;20.20;99.90;;;;;;5071507;28;20298;-63
2021/07/04 00:53:10;;;;;;;4.40;3.97;;;19.70;99.90;;;;;;5071749;28;20208;-63
2021/07/04 00:55:37;;;;;;;5.22;4.35;;;19.90;99.90;;;;;;5071074;28;20644;-63
2021/07/04 00:58:05;;;;;;;5.28;3.95;;;19.90;99.90;;;;;;5071425;28;20224;-63
2021/07/04 01:00:32;;;;;;;4.32;3.92;;;19.90;99.90;;;;;;5071551;28;20300;-63
2021/07/04 01:03:00;;;;;;;5.13;4.40;;;20.00;99.90;;;;;;5071207;28;20205;-64
2021/07/04 01:05:28;;;;;;;5.55;4.05;;;20.00;99.90;;;;;;5071230;28;20301;-64
2021/07/04 01:07:57;;;;;;;4.70;3.92;;;20.10;99.90;;;;;;5071007;28;20201;-63
2021/07/04 01:10:27;;;;;;;5.30;4.28;;;20.00;99.90;;;;;;5071445;28;20266;-63
2021/07/04 01:12:55;;;;;;;5.03;4.47;;;20.10;99.90;;;;;;5070896;28;20223;-63
2021/07/04 01:15:25;;;;;;;5.03;3.85;;;20.00;99.90;;;;;;5070533;28;20589;-63
2021/07/04 01:17:54;;;;;;;6.07;4.30;;;20.10;99.90;;;;;;5070905;28;20630;-63
2021/07/04 01:20:22;;;;;;;4.22;3.83;;;20.00;99.90;;;;;;5071186;28;20236;-63
2021/07/04 01:22:56;;;;;;;4.07;3.67;;;20.00;99.90;;;;;;5071005;28;20220;-63
2021/07/04 01:25:24;;;;;;;4.47;3.60;;;20.00;99.90;;;;;;5070874;28;20225;-62
2021/07/04 01:27:50;;;;;;;5.05;3.75;;;20.00;99.90;;;;;;5070710;28;20213;-63
2021/07/04 01:30:20;;;;;;;5.10;4.15;;;19.90;99.90;;;;;;5070985;28;20212;-64
2021/07/04 01:32:47;;;;;;;5.18;4.10;;;19.90;99.90;;;;;;5070952;28;20208;-63
2021/07/04 01:35:14;;;;;;;4.78;4.28;;;20.00;99.90;;;;;;5070958;28;20225;-63
2021/07/04 01:37:41;;;;;;;5.97;4.15;;;19.90;99.90;;;;;;5070675;28;20209;-63
2021/07/04 01:40:11;;;;;;;5.15;3.72;;;19.80;99.90;;;;;;5071004;28;20216;-63
2021/07/04 01:42:40;;;;;;;4.35;3.92;;;19.80;99.90;;;;;;5071498;28;20212;-63
2021/07/04 01:45:07;;;;;;;4.82;3.83;;;19.80;99.90;;;;;;5070487;28;20236;-63
2021/07/04 01:47:38;;;;;;;4.90;4.32;;;19.80;99.90;;;;;;5070655;28;20680;-63
2021/07/04 01:50:07;;;;;;;5.95;4.00;;;19.80;99.90;;;;;;5070835;28;20197;-63
2021/07/04 01:52:34;;;;;;;5.03;4.50;;;19.80;99.90;;;;;;5071177;28;20235;-63
2021/07/04 01:55:01;;;;;;;4.30;3.90;;;19.80;99.90;;;;;;5070695;28;20225;-63
2021/07/04 01:57:29;;;;;;;5.75;4.32;;;19.80;99.90;;;;;;5071302;28;20659;-63
2021/07/04 01:59:56;;;;;;;4.70;4.18;;;19.80;99.90;;;;;;5071031;28;20569;-63
2021/07/04 02:02:23;;;;;;;5.60;4.32;;;19.80;99.90;;;;;;5070751;28;20216;-63
2021/07/04 02:04:50;;;;;;;6.38;4.10;;;19.80;99.90;;;;;;5070547;28;20236;-63
2021/07/04 02:07:18;;;;;;;4.45;4.05;;;19.80;99.90;;;;;;5071422;28;20212;-63
2021/07/04 02:09:45;;;;;;;4.30;3.92;;;19.90;99.90;;;;;;5070747;28;20216;-63
2021/07/04 02:12:14;;;;;;;4.65;4.20;;;20.00;99.90;;;;;;5070661;28;20204;-63
2021/07/04 02:14:43;;;;;;;4.60;4.20;;;20.00;99.90;;;;;;5070159;28;20603;-63
2021/07/04 02:17:09;;;;;;;4.45;4.05;;;20.00;99.90;;;;;;5070710;28;20400;-63
2021/07/04 02:19:38;;;;;;;5.28;4.78;;;20.10;99.90;;;;;;5070614;28;20213;-63
2021/07/04 02:22:06;;;;;;;5.45;4.63;;;20.00;99.90;;;;;;5071137;28;20216;-63
2021/07/04 02:24:33;;;;;;;6.15;4.00;;;20.10;99.90;;;;;;5070809;28;20593;-63
2021/07/04 02:27:00;;;;;;;6.30;4.45;;;20.10;99.90;;;;;;5074436;28;20209;-65
2021/07/04 02:29:27;;;;;;;6.15;4.30;;;20.10;99.90;;;;;;5073981;28;20232;-62
2021/07/04 02:31:55;;;;;;;5.25;4.20;;;19.90;99.90;;;;;;5074501;28;20216;-62
2021/07/04 02:34:22;;;;;;;5.13;3.60;;;20.00;99.90;;;;;;5074046;28;20204;-64
2021/07/04 02:36:49;;;;;;;5.18;4.13;;;19.90;99.90;;;;;;5074260;28;20291;-63
2021/07/04 02:39:16;;;;;;;4.43;4.03;;;19.80;99.90;;;;;;5074094;28;20216;-63
2021/07/04 02:41:43;;;;;;;4.88;4.38;;;19.60;99.90;;;;;;5073904;28;20208;-63
2021/07/04 02:44:09;;;;;;;5.30;4.50;;;19.60;99.90;;;;;;5073902;28;20258;-63
2021/07/04 02:46:37;;;;;;;9.02;4.20;;;19.50;99.90;;;;;;5074131;28;20269;-63
2021/07/04 02:49:06;;;;;;;5.03;4.05;;;19.00;99.90;;;;;;5074018;28;20212;-63
2021/07/04 02:51:33;;;;;;;5.28;4.55;;;19.30;99.90;;;;;;5073912;28;20209;-63
2021/07/04 02:54:00;;;;;;;7.18;4.63;;;19.10;99.90;;;;;;5073604;28;20212;-63
2021/07/04 02:56:26;;;;;;;5.15;4.65;;;19.00;99.90;;;;;;5073582;28;20229;-63
2021/07/04 02:58:53;;;;;;;5.25;4.75;;;18.90;99.90;;;;;;5073939;28;20494;-63
2021/07/04 03:01:20;;;;;;;6.07;4.78;;;19.00;99.90;;;;;;5073603;28;20232;-63
2021/07/04 03:03:46;;;;;;;5.97;4.70;;;18.10;99.90;;;;;;5073558;28;20205;-63
2021/07/04 03:06:16;;;;;;;6.55;5.00;;;18.60;99.90;;;;;;5074029;28;20251;-63
2021/07/04 03:08:43;;;;;;;5.80;4.60;;;18.70;99.90;;;;;;5073273;28;20216;-63
2021/07/04 03:11:11;;;;;;;6.30;4.80;;;18.70;99.90;;;;;;5073679;28;20296;-63
2021/07/04 03:13:38;;;;;;;5.10;4.60;;;18.60;99.90;;;;;;5073470;28;20239;-62
2021/07/04 03:16:05;;;;;;;5.20;4.63;;;18.60;99.90;;;;;;5073001;28;20740;-63
2021/07/04 03:18:32;;;;;;;5.78;5.18;;;18.60;99.90;;;;;;5073714;28;20205;-63
2021/07/04 03:20:59;;;;;;;5.10;4.60;;;18.60;99.90;;;;;;5073409;28;20215;-63
2021/07/04 03:23:27;;;;;;;5.32;4.82;;;19.00;99.90;;;;;;5072991;28;20216;-63
2021/07/04 03:25:55;;;;;;;6.07;5.30;;;18.60;99.90;;;;;;5073438;28;20649;-63
2021/07/04 03:28:21;;;;;;;6.28;5.05;;;18.60;99.90;;;;;;5073349;28;20237;-63
2021/07/04 03:30:48;;;;;;;7.05;5.25;;;18.60;99.90;;;;;;5073323;28;20212;-63
2021/07/04 03:33:15;;;;;;;6.65;5.10;;;18.60;99.90;;;;;;5073469;28;20299;-63
2021/07/04 03:35:41;;;;;;;5.65;4.78;;;18.70;99.90;;;;;;5072832;28;20232;-63
2021/07/04 03:38:08;;;;;;;7.18;5.18;;;18.60;99.90;;;;;;5072313;28;20231;-63
2021/07/04 03:40:36;;;;;;;5.65;4.78;;;18.70;99.90;;;;;;5073150;28;20708;-63
2021/07/04 03:43:03;;;;;;;5.47;4.97;;;18.60;99.90;;;;;;5073311;28;20519;-62
2021/07/04 03:45:30;;;;;;;6.07;5.32;;;18.50;99.90;;;;;;5072783;28;20225;-63
2021/07/04 03:47:57;;;;;;;5.63;5.13;;;18.50;99.90;;;;;;5073337;28;20258;-62
2021/07/04 03:50:24;;;;;;;6.35;5.07;;;18.50;99.90;;;;;;5072675;28;20200;-63
2021/07/04 03:52:53;;;;;;;6.57;5.70;;;18.50;99.90;;;;;;5072959;28;20209;-62
2021/07/04 03:55:20;;;;;;;5.25;4.75;;;18.50;99.90;;;;;;5072525;28;20228;-62
2021/07/04 03:57:48;;;;;;;8.43;5.88;;;18.40;99.90;;;;;;5072519;28;20201;-62
2021/07/04 04:00:16;;;;;;;5.85;5.05;;;18.40;99.90;;;;;;5072670;28;20217;-62
2021/07/04 04:02:43;;;;;;;6.72;5.57;;;18.40;99.90;;;;;;5073226;28;20205;-62
2021/07/04 04:05:11;;;;;;;5.53;4.93;;;18.50;99.90;;;;;;5072605;28;20225;-62
2021/07/04 04:07:38;;;;;;;6.47;5.65;;;18.50;99.90;;;;;;5072382;28;20213;-61
2021/07/04 04:10:06;;;;;;;5.53;4.30;;;18.60;99.90;;;;;;5072572;28;20463;-62
2021/07/04 04:12:33;;;;;;;5.53;5.00;;;18.70;99.90;;;;;;5072328;28;20685;-62
2021/07/04 04:15:01;;;;;;;9.68;5.20;;;19.00;99.90;;;;;;5072059;28;20224;-62
2021/07/04 04:17:28;;;;;;;6.85;5.13;;;19.20;99.90;;;;;;5072229;28;20208;-62
2021/07/04 04:19:54;;;;;;;5.68;4.50;;;19.30;99.90;;;;;;5072016;28;20219;-62
2021/07/04 04:22:21;;;;;;;5.43;4.82;;;19.40;99.90;;;;;;5072055;28;20217;-62
2021/07/04 04:24:48;;;;;;;8.23;4.90;;;19.60;99.90;;;;;;5071776;28;20705;-62
2021/07/04 04:27:15;;;;;;;6.22;4.53;;;19.70;99.90;;;;;;5072691;28;20205;-62
2021/07/04 04:29:42;;;;;;;7.10;4.82;;;19.90;99.90;;;;;;5072085;28;20209;-62
2021/07/04 04:32:11;;;;;;;4.63;4.13;;;20.00;99.90;;;;;;5071928;28;20281;-62
2021/07/04 04:34:37;;;;;;;5.05;4.55;;;20.10;99.90;;;;;;5072029;28;20229;-62
2021/07/04 04:37:05;;;;;;;4.85;4.32;;;20.20;99.90;;;;;;5071987;28;20205;-62
2021/07/04 04:39:32;;;;;;;8.30;4.30;;;20.30;99.90;;;;;;5071738;28;20216;-62
2021/07/04 04:42:00;;;;;;;5.07;3.95;;;20.50;99.90;;;;;;5071904;28;20209;-62
2021/07/04 04:44:26;;;;;;;5.30;4.05;;;20.60;99.90;;;;;;5071867;28;20247;-62
2021/07/04 04:46:53;;;;;;;4.18;3.78;;;20.70;99.90;;;;;;5072418;28;20209;-62
2021/07/04 04:49:21;;;;;;;5.00;3.97;;;20.80;99.90;;;;;;5072247;28;20209;-62
2021/07/04 04:51:48;;;;;;;5.78;3.92;;;21.00;99.90;;;;;;5072304;28;20228;-62
2021/07/04 04:54:15;;;;;;;4.88;3.90;;;21.10;99.90;;;;;;5072678;28;20208;-62
2021/07/04 04:56:41;;;;;;;5.55;4.07;;;21.30;99.90;;;;;;5072269;28;20209;-62
2021/07/04 04:59:08;;;;;;;3.55;3.15;;;21.50;99.90;;;;;;5071593;28;20209;-63
2021/07/04 05:01:35;;;;;;;3.70;3.40;;;21.70;99.90;;;;;;5071369;28;20201;-62
2021/07/04 05:04:01;;;;;;;4.07;3.05;;;22.00;99.90;;;;;;5071970;28;20208;-63
2021/07/04 05:06:29;;;;;;;4.72;3.30;;;22.10;99.90;;;;;;5071596;28;20225;-63
2021/07/04 05:08:56;;;;;;;4.15;3.30;;;22.20;99.90;;;;;;5071677;28;20204;-63
2021/07/04 05:11:23;;;;;;;3.50;3.17;;;22.20;99.90;;;;;;5071848;28;20205;-62
2021/07/04 05:13:50;;;;;;;3.88;3.35;;;22.10;99.90;;;;;;5071835;28;20577;-62
2021/07/04 05:16:17;;;;;;;4.00;3.60;;;22.10;99.90;;;;;;5071601;28;20225;-63
2021/07/04 05:18:44;;;;;;;3.83;3.33;;;22.00;99.90;;;;;;5071391;28;20606;-63
2021/07/04 05:21:10;;;;;;;3.60;3.10;;;22.10;99.90;;;;;;5071600;28;20205;-63
2021/07/04 05:23:38;;;;;;;4.13;3.33;;;22.30;99.90;;;;;;5071060;28;20212;-63
2021/07/04 05:26:05;;;;;;;3.97;3.40;;;22.40;99.90;;;;;;5070857;28;20229;-64
2021/07/04 05:28:32;;;;;;;3.70;3.13;;;22.70;99.90;;;;;;5070692;28;20205;-62
2021/07/04 05:30:58;;;;;;;4.32;3.45;;;23.20;99.90;;;;;;5071154;28;20220;-62
2021/07/04 05:33:25;;;;;;;3.45;3.15;;;24.00;99.90;;;;;;5070969;28;20254;-62
2021/07/04 05:35:52;;;;;;;3.65;2.88;;;24.60;99.90;;;;;;5070839;28;20228;-62
2021/07/04 05:38:19;;;;;;;2.88;2.53;;;25.00;99.90;;;;;;5070658;28;20676;-62
2021/07/04 05:40:49;;;;;;;3.00;2.70;;;25.00;99.90;;;;;;5070636;28;20228;-62
2021/07/04 05:43:16;;;;;;;3.15;2.50;;;25.20;99.90;;;;;;5070627;28;20216;-62
2021/07/04 05:45:43;;;;;;;4.90;2.80;;;25.30;99.90;;;;;;5070897;28;20587;-62
2021/07/04 05:48:11;;;;;;;2.80;2.55;;;25.50;99.90;;;;;;5070683;28;20212;-62
2021/07/04 05:50:37;;;;;;;3.92;3.13;;;25.80;99.90;;;;;;5070871;28;20236;-62
2021/07/04 05:53:04;;;;;;;3.35;2.67;;;26.10;99.90;;;;;;5070833;28;20201;-62
2021/07/04 05:55:31;;;;;;;3.38;3.00;;;26.80;99.90;;;;;;5070457;28;20225;-62
2021/07/04 05:57:59;;;;;;;3.50;3.00;;;27.60;99.90;;;;;;5070720;28;20216;-62
2021/07/04 06:00:26;;;;;;;3.33;2.95;;;28.20;99.90;;;;;;5070084;28;20741;-62
2021/07/04 06:02:53;;;;;;;2.70;2.50;;;28.90;99.90;;;;;;5070663;28;20205;-62
2021/07/04 06:05:19;;;;;;;5.32;3.00;;;29.90;99.90;;;;;;5070102;28;20228;-62
2021/07/04 06:07:46;;;;;;;3.47;2.72;;;30.80;99.90;;;;;;5070734;28;20586;-63
2021/07/04 06:10:14;;;;;;;3.05;2.75;;;31.80;97.00;;;;;;5070702;28;20649;-64
2021/07/04 06:12:41;;;;;;;3.53;2.75;;;32.90;93.60;;;;;;5070564;28;20576;-63
2021/07/04 06:15:10;;;;;;;4.25;2.50;;;34.20;88.40;;;;;;5070839;28;20220;-63
2021/07/04 06:17:37;;;;;;;2.80;2.20;;;35.00;82.30;;;;;;5071104;28;20208;-63
2021/07/04 06:20:05;;;;;;;3.03;2.65;;;35.50;76.10;;;;;;5070816;28;20208;-63
2021/07/04 06:22:32;;;;;;;3.67;2.58;;;35.50;73.60;;;;;;5070980;28;20213;-62
2021/07/04 06:24:59;;;;;;;3.88;2.60;;;34.90;73.70;;;;;;5070289;28;20233;-63
2021/07/04 06:27:25;;;;;;;3.38;2.60;;;34.40;74.30;;;;;;5070581;28;20209;-62
2021/07/04 06:29:52;;;;;;;4.68;3.90;;;33.80;75.40;;;;;;5070417;28;20215;-62
2021/07/04 06:32:20;;;;;;;5.22;3.20;;;33.10;77.30;;;;;;5070270;28;20213;-62
2021/07/04 06:34:47;;;;;;;3.78;3.15;;;32.50;76.30;;;;;;5070001;28;20225;-62
2021/07/04 06:37:13;;;;;;;4.20;3.10;;;32.30;75.80;;;;;;5070093;28;20204;-63
2021/07/04 06:39:40;;;;;;;3.42;3.00;;;31.90;77.20;;;;;;5070512;28;20209;-63
2021/07/04 06:42:07;;;;;;;3.28;2.97;;;31.50;78.20;;;;;;5070793;28;20594;-63
2021/07/04 06:44:34;;;;;;;3.85;3.50;;;30.90;79.90;;;;;;5070158;28;20216;-63
2021/07/04 06:47:00;;;;;;;3.55;3.08;;;30.20;82.10;;;;;;5070373;28;20237;-63
2021/07/04 06:49:28;;;;;;;5.32;3.15;;;29.60;84.40;;;;;;5069893;28;20205;-62
2021/07/04 06:51:55;;;;;;;3.70;3.30;;;29.30;86.60;;;;;;5069872;28;20697;-62
2021/07/04 06:54:22;;;;;;;3.38;3.03;;;29.60;87.70;;;;;;5070191;28;20209;-62
2021/07/04 06:56:49;;;;;;;4.13;3.38;;;30.90;83.60;;;;;;5070298;28;20629;-62
2021/07/04 06:59:15;;;;;;;3.90;3.33;;;32.60;78.80;;;;;;5070021;28;20295;-63
2021/07/04 07:01:42;;;;;;;2.90;2.65;;;34.80;72.40;;;;;;5069957;28;20215;-63
2021/07/04 07:04:09;;;;;;;2.92;2.70;;;37.10;67.30;;;;;;5069890;28;20212;-63
2021/07/04 07:06:37;;;;;;;2.80;2.42;;;38.10;59.80;;;;;;5069801;28;20240;-63
2021/07/04 07:09:04;;;;;;;2.22;2.03;;;38.90;56.80;;;;;;5070358;28;20234;-63
2021/07/04 07:11:30;;;;;;;3.95;2.67;;;38.50;55.40;;;;;;5070401;28;20205;-63
2021/07/04 07:13:57;;;;;;;2.80;2.53;;;38.10;55.70;;;;;;5073647;28;20628;-63
2021/07/04 07:16:24;;;;;;;5.95;2.63;;;37.50;56.40;;;;;;5073581;28;20705;-63
2021/07/04 07:18:50;;;;;;;4.55;3.78;;;36.80;56.90;;;;;;5073561;28;20209;-63
2021/07/04 07:21:17;;;;;;;2.95;2.65;;;35.90;58.80;;;;;;5073862;28;20201;-63
2021/07/04 07:23:45;;;;;;;4.75;2.47;;;35.40;59.20;;;;;;5073372;28;20205;-62
2021/07/04 07:26:12;;;;;;;3.10;2.75;;;35.20;59.40;;;;;;5073397;28;20700;-63
2021/07/04 07:28:39;;;;;;;4.03;2.72;;;35.10;59.80;;;;;;5073232;28;20581;-63
2021/07/04 07:31:06;;;;;;;3.00;2.70;;;34.90;60.40;;;;;;5073396;28;20668;-63
2021/07/04 07:33:32;;;;;;;2.78;2.58;;;35.30;59.00;;;;;;5073072;28;20205;-63
2021/07/04 07:35:59;;;;;;;2.85;2.58;;;35.30;58.70;;;;;;5073371;28;20231;-63
2021/07/04 07:38:26;;;;;;;3.33;2.95;;;35.10;58.60;;;;;;5073201;28;20201;-64
2021/07/04 07:40:54;;;;;;;3.03;2.70;;;34.50;59.80;;;;;;5073123;28;20669;-63
2021/07/04 07:43:21;;;;;;;3.10;2.80;;;34.00;61.00;;;;;;5073164;28;20208;-63
2021/07/04 07:45:47;;;;;;;3.80;3.10;;;33.90;61.10;;;;;;5073002;28;20235;-64
2021/07/04 07:48:14;;;;;;;3.10;2.80;;;33.80;61.70;;;;;;5073378;28;20200;-64
2021/07/04 07:50:41;;;;;;;3.42;2.85;;;33.80;61.80;;;;;;5073004;28;20683;-63
2021/07/04 07:53:08;;;;;;;3.05;2.67;;;34.60;60.30;;;;;;5073151;28;20406;-63
2021/07/04 07:55:34;;;;;;;2.63;2.25;;;36.40;57.10;;;;;;5072985;28;20229;-63
2021/07/04 07:58:03;;;;;;;6.72;3.90;;;38.40;53.90;;;;;;5072829;28;20241;-65
2021/07/04 08:00:30;;;;;;;4.15;2.88;;;40.10;51.70;;;;;;5073195;28;20618;-66
2021/07/04 08:02:57;;;;;;;5.30;2.47;;;41.50;48.00;;;;;;5073217;28;20212;-67
2021/07/04 08:05:24;;;;;;;5.20;2.80;;;42.30;45.80;;;;;;5072858;28;20228;-64
2021/07/04 08:07:50;;;;;;;4.65;3.60;;;42.80;44.90;;;;;;5072965;28;20207;-65
2021/07/04 08:10:17;;;;;;;3.78;2.95;;;43.10;44.70;;;;;;5072969;28;20209;-65
2021/07/04 08:12:44;;;;;;;2.97;2.63;;;43.10;43.70;;;;;;5072757;28;20215;-64
2021/07/04 08:15:14;;;;;;;3.25;2.65;;;43.30;43.10;;;;;;5072277;28;20716;-66
2021/07/04 08:17:40;;;;;;;5.35;3.00;;;43.60;42.10;;;;;;5072861;28;20208;-65
2021/07/04 08:20:09;;;;;;;2.83;2.60;;;43.60;41.70;;;;;;5072630;28;20208;-65
2021/07/04 08:22:37;;;;;;;2.70;2.50;;;43.70;41.10;;;;;;5072213;28;20669;-65
2021/07/04 08:25:05;;;;;;;3.47;3.00;;;43.20;41.60;;;;;;5072333;28;20224;-64
2021/07/04 08:27:32;;;;;;;3.50;2.70;;;42.00;42.80;;;;;;5072313;28;20231;-65
2021/07/04 08:29:59;;;;;;;3.67;2.80;;;41.60;43.70;;;;;;5072601;28;20212;-65
2021/07/04 08:32:27;;;;;;;3.33;2.67;;;41.40;43.20;;;;;;5072880;28;20216;-65
2021/07/04 08:34:54;;;;;;;2.72;2.53;;;41.80;42.60;;;;;;5073762;28;20224;-65
2021/07/04 08:37:20;;;;;;;2.95;2.75;;;42.40;41.70;;;;;;5073773;28;20208;-65
2021/07/04 08:39:47;;;;;;;2.78;2.58;;;42.70;41.10;;;;;;5072797;28;20718;-65
2021/07/04 08:42:14;;;;;;;2.53;2.33;;;41.90;42.00;;;;;;5072884;28;20584;-64
2021/07/04 08:44:47;;;;;;;2.95;2.35;;;41.10;42.80;;;;;;5072057;28;20232;-66
2021/07/04 08:47:14;;;;;;;3.40;2.22;;;40.10;43.70;;;;;;5072244;28;20225;-63
2021/07/04 08:49:42;;;;;;;4.18;2.30;;;39.40;44.20;;;;;;5071906;28;20208;-60
2021/07/04 08:52:08;;;;;;;4.50;2.60;;;39.40;44.50;;;;;;5072187;28;20204;-63
2021/07/04 08:54:35;;;;;;;2.78;2.58;;;39.40;44.70;;;;;;5072009;28;20201;-60
2021/07/04 08:57:08;;;;;;;4.78;4.28;;;38.70;45.80;;;;;;5071991;28;20714;-61
2021/07/04 08:59:35;;;;;;;4.10;2.85;;;37.80;47.50;;;;;;5072061;28;20224;-59
2021/07/04 09:02:02;;;;;;;4.07;3.08;;;36.70;49.10;;;;;;5071981;28;20205;-59
2021/07/04 09:04:29;;;;;;;3.35;2.83;;;35.50;50.60;;;;;;5072014;28;20378;-59
2021/07/04 09:06:59;;;;;;;4.78;2.90;;;34.50;52.70;;;;;;5072588;28;20231;-60
2021/07/04 09:09:28;;;;;;;3.00;2.72;;;33.60;54.30;;;;;;5071745;28;20258;-60
2021/07/04 09:11:57;;;;;;;3.10;2.80;;;32.80;56.30;;;;;;5071895;28;20204;-61
2021/07/04 09:14:33;;;;;;;3.72;3.25;;;32.30;58.40;;;;;;5071585;28;20205;-61
2021/07/04 09:17:01;;;;;;;3.47;3.17;;;31.80;59.50;;;;;;5071771;28;20303;-61
2021/07/04 09:19:28;;;;;;;4.70;3.13;;;31.60;60.00;;;;;;5071350;28;20204;-61
2021/07/04 09:22:02;;;;;;;2.72;2.53;;;31.60;60.30;;;;;;5071361;28;20215;-63
2021/07/04 09:24:31;;;;;;;6.07;4.93;;;31.80;61.00;;;;;;5071378;28;20209;-62
2021/07/04 09:26:58;;;;;;;4.60;3.17;;;31.80;60.20;;;;;;5071158;28;20739;-58
2021/07/04 09:29:46;;;;;;;3.75;3.33;;;31.80;60.40;;;;;;5071453;28;20209;-61
2021/07/04 09:32:15;;;;;;;3.30;3.00;;;32.20;61.70;;;;;;5071190;28;20555;-63
2021/07/04 09:34:49;;;;;;;5.82;5.28;;;31.60;61.20;;;;;;5070592;28;20483;-65
2021/07/04 09:37:27;;;;;;;4.18;3.10;;;31.60;62.00;;;;;;5071002;28;20201;-64
2021/07/04 09:40:07;;;;;;;4.05;3.65;;;31.40;62.40;;;;;;5070955;28;20209;-62
2021/07/04 09:42:33;;;;;;;4.00;3.10;;;31.10;62.50;;;;;;5070745;28;20207;-61
2021/07/04 09:45:00;;;;;;;4.63;3.20;;;30.90;62.60;;;;;;5070874;28;20236;-61
2021/07/04 09:47:27;;;;;;;3.95;3.25;;;30.70;63.50;;;;;;5071113;28;20227;-61
2021/07/04 09:50:03;;;;;;;3.05;2.75;;;30.50;64.80;;;;;;5070760;28;20683;-61
2021/07/04 09:52:31;;;;;;;4.82;2.80;;;30.20;65.10;;;;;;5070932;28;20228;-61
2021/07/04 09:55:01;;;;;;;3.70;3.00;;;30.10;65.70;;;;;;5070152;28;20235;-61
2021/07/04 09:57:29;;;;;;;2.78;2.58;;;30.00;65.90;;;;;;5070627;28;20205;-61
2021/07/04 10:00:17;;;;;;;3.22;2.70;;;30.20;65.20;;;;;;5070892;28;20201;-68
2021/07/04 10:03:05;;;;;;;2.63;2.42;;;30.60;63.50;;;;;;5068566;28;20205;-59
2021/07/04 10:05:32;;;;;;;4.40;3.33;;;30.90;61.70;;;;;;5069025;28;20660;-65
2021/07/04 10:08:00;;;;;;;4.28;2.97;;;31.20;61.30;;;;;;5070127;28;20700;-64
2021/07/04 10:10:27;;;;;;;3.20;2.63;;;31.40;61.60;;;;;;5070586;28;20212;-64
2021/07/04 10:12:54;;;;;;;2.72;2.53;;;31.60;61.60;;;;;;5070433;28;20212;-62
2021/07/04 10:15:22;;;;;;;3.30;2.70;;;31.70;60.90;;;;;;5070069;28;20274;-60
2021/07/04 10:17:50;;;;;;;3.72;2.78;;;31.30;60.40;;;;;;5070487;28;20204;-62
2021/07/04 10:20:17;;;;;;;3.22;2.90;;;31.50;61.60;;;;;;5070432;28;20209;-62
2021/07/04 10:22:44;;;;;;;3.08;2.78;;;31.50;61.50;;;;;;5070836;28;20205;-61
2021/07/04 10:25:13;;;;;;;2.58;2.38;;;31.60;61.10;;;;;;5070501;28;20251;-62
2021/07/04 10:27:40;;;;;;;2.83;2.55;;;31.70;60.50;;;;;;5070752;28;20270;-62
2021/07/04 10:30:08;;;;;;;3.28;2.25;;;31.70;60.80;;;;;;5070959;28;20204;-61
2021/07/04 10:32:35;;;;;;;2.90;2.60;;;31.70;60.90;;;;;;5070525;28;20205;-61
2021/07/04 10:35:08;;;;;;;3.42;3.13;;;31.60;60.80;;;;;;5070634;28;20235;-61
2021/07/04 10:37:37;;;;;;;4.10;2.80;;;31.40;60.80;;;;;;5070722;28;20205;-62
2021/07/04 10:40:17;;;;;;;3.63;2.47;;;31.30;61.40;;;;;;5070365;28;20209;-62
2021/07/04 10:42:44;;;;;;;4.10;2.78;;;31.40;61.30;;;;;;5070740;28;20204;-62
2021/07/04 10:45:31;;;;;;;2.97;2.67;;;31.50;60.50;;;;;;5070132;28;20229;-62
2021/07/04 10:47:59;;;;;;;2.35;2.15;;;31.90;59.80;;;;;;5074131;28;20288;-61
2021/07/04 10:50:26;;;;;;;2.47;2.28;;;32.20;59.20;;;;;;5074261;28;20205;-62
2021/07/04 10:52:53;;;;;;;2.72;2.47;;;32.70;58.00;;;;;;5074449;28;20236;-61
2021/07/04 10:55:32;;;;;;;2.45;2.20;;;32.90;57.20;;;;;;5074369;28;20315;-61
2021/07/04 10:58:02;;;;;;;3.10;2.28;;;32.90;57.20;;;;;;5074653;28;20232;-61
2021/07/04 11:00:37;;;;;;;2.35;2.15;;;32.90;57.00;;;;;;5074564;28;20246;-61
2021/07/04 11:03:06;;;;;;;5.57;5.05;;;32.80;57.00;;;;;;5074384;28;20587;-61
2021/07/04 11:05:47;;;;;;;4.80;4.25;;;32.70;56.90;;;;;;5073929;28;20240;-61
2021/07/04 11:08:15;;;;;;;2.65;2.10;;;32.50;57.80;;;;;;5073693;28;20320;-61
2021/07/04 11:11:00;;;;;;;2.33;2.13;;;32.40;58.30;;;;;;5074168;28;20216;-63
2021/07/04 11:13:41;;;;;;;3.58;2.28;;;32.20;58.80;;;;;;5073801;28;20295;-61
2021/07/04 11:16:26;;;;;;;2.65;2.45;;;32.10;59.40;;;;;;5073531;28;20344;-63
2021/07/04 11:18:56;;;;;;;3.00;2.70;;;31.90;60.20;;;;;;5073707;28;20211;-63
2021/07/04 11:21:25;;;;;;;3.22;2.25;;;31.80;60.40;;;;;;5073976;28;20640;-63
2021/07/04 11:24:14;;;;;;;2.83;2.53;;;31.90;60.90;;;;;;5073988;28;20201;-62
2021/07/04 11:26:43;;;;;;;2.58;2.38;;;32.00;60.80;;;;;;5073185;28;20225;-63
2021/07/04 11:29:12;;;;;;;2.78;2.58;;;32.00;60.00;;;;;;5073272;28;20212;-63
2021/07/04 11:31:43;;;;;;;2.70;2.28;;;32.00;59.50;;;;;;5073747;28;20232;-64
2021/07/04 11:34:11;;;;;;;2.83;2.42;;;32.00;59.40;;;;;;5073132;28;20252;-61
2021/07/04 11:36:37;;;;;;;3.63;3.33;;;32.00;59.70;;;;;;5073165;28;20220;-62
2021/07/04 11:39:07;;;;;;;5.43;2.90;;;32.10;59.60;;;;;;5073319;28;20664;-61
2021/07/04 11:41:36;;;;;;;3.05;2.40;;;32.20;59.40;;;;;;5073238;28;20268;-63
2021/07/04 11:44:06;;;;;;;3.45;3.15;;;32.30;59.80;;;;;;5073095;28;20581;-65
2021/07/04 11:46:35;;;;;;;4.07;2.67;;;32.50;59.70;;;;;;5073236;28;20231;-62
2021/07/04 11:49:06;;;;;;;3.10;2.80;;;32.50;59.20;;;;;;5073243;28;20205;-61
2021/07/04 11:51:42;;;;;;;5.65;2.60;;;32.50;59.40;;;;;;5073273;28;20201;-62
2021/07/04 11:54:12;;;;;;;2.70;2.40;;;32.60;58.80;;;;;;5072952;28;20656;-62
2021/07/04 11:56:40;;;;;;;3.67;2.78;;;32.60;58.80;;;;;;5073038;28;20228;-61
2021/07/04 11:59:17;;;;;;;2.70;2.50;;;32.70;58.60;;;;;;5072559;28;20205;-64
2021/07/04 12:01:47;;;;;;;2.65;2.40;;;32.90;58.60;;;;;;5073267;28;20211;-62
2021/07/04 12:04:14;;;;;;;3.20;2.90;;;33.00;58.20;;;;;;5072635;28;20611;-65
2021/07/04 12:06:51;;;;;;;2.95;2.42;;;32.80;58.70;;;;;;5073184;28;20239;-64
2021/07/04 12:09:18;;;;;;;3.15;2.35;;;32.70;58.80;;;;;;5073070;28;20200;-60
2021/07/04 12:11:47;;;;;;;4.90;2.67;;;32.60;58.90;;;;;;5073519;28;20216;-60
2021/07/04 12:14:30;;;;;;;3.15;2.65;;;32.40;59.30;;;;;;5073382;28;20211;-61
2021/07/04 12:16:59;;;;;;;7.47;5.68;;;32.40;59.60;;;;;;5072625;28;20200;-60
2021/07/04 12:19:32;;;;;;;2.80;2.53;;;32.50;59.60;;;;;;5072522;28;20709;-61
2021/07/04 12:22:01;;;;;;;2.75;2.45;;;32.40;59.80;;;;;;5073009;28;20618;-61
2021/07/04 12:24:36;;;;;;;4.85;3.33;;;32.30;60.10;;;;;;5072604;28;20209;-62
2021/07/04 12:27:04;;;;;;;4.28;3.88;;;32.30;60.00;;;;;;5072552;28;20232;-60
2021/07/04 12:29:32;;;;;;;3.42;2.58;;;32.40;60.40;;;;;;5072598;28;20200;-62
2021/07/04 12:32:02;;;;;;;2.83;2.50;;;32.40;59.50;;;;;;5072702;28;20211;-62
2021/07/04 12:34:30;;;;;;;3.88;2.80;;;32.20;59.40;;;;;;5072371;28;20209;-62
2021/07/04 12:36:57;;;;;;;3.72;3.25;;;32.10;59.40;;;;;;5072420;28;20208;-62
2021/07/04 12:39:30;;;;;;;2.35;2.15;;;32.10;59.50;;;;;;5072681;28;20694;-61
2021/07/04 12:41:57;;;;;;;2.30;2.10;;;32.00;59.20;;;;;;5072295;28;20258;-63
2021/07/04 12:44:23;;;;;;;4.32;2.45;;;32.00;61.00;;;;;;5072509;28;20712;-60
2021/07/04 12:46:51;;;;;;;6.18;2.75;;;32.10;61.30;;;;;;5071794;28;20573;-61
2021/07/04 12:49:18;;;;;;;3.60;2.42;;;32.00;62.60;;;;;;5072267;28;20205;-60
2021/07/04 12:51:46;;;;;;;2.90;2.63;;;32.30;60.40;;;;;;5072562;28;20236;-61
2021/07/04 12:54:18;;;;;;;3.30;2.30;;;32.30;59.90;;;;;;5071680;28;20390;-63